Terminal Aerodrome Forecast
Issued by NWS Wilmington, OH

Home | Current Version | Previous Version | Text Only | Print | Product List | Glossary On
Versions: 1 2 3 4 5 6 7 8 9 10 11 12 13 14 15 16 17 18 19 20 21 22 23 24 25 26 27
000
FTUS41 KILN 310500
TAFCVG
TAF
KCVG 310534Z 3106/0112 18003KT P6SM FEW040 OVC100
     FM311100 24007KT P6SM VCSH OVC040
     FM311500 27012G20KT 5SM -SHRA BR OVC025
     FM311900 30014G24KT P6SM VCSH BKN015
     FM010000 32018G28KT P6SM VCSH OVC010=

USA.gov is the U.S. government's official web portal to all federal, state and local government web resources and services.